Time;durP1;ratioP1;P1;durP2;ratioP2;P2;SDS_P1;SDS_P2;PMS_P1;PMS_P2;Temp;Humidity;BMP_temperature;BMP_pressure;BME280_temperature;BME280_humidity;BME280_pressure;Samples;Min_cycle;Max_cycle;Signal;HPM_P1;HPM_P2
2022/12/01 00:01:11;;;;;;;;;;;;;;;11.08;38.83;99728.09;4508402;31;35096;-90
2022/12/01 00:03:38;;;;;;;;;;;;;;;11.86;37.88;99728.69;4507757;31;35129;-91
2022/12/01 00:06:08;;;;;;;;;;;;;;;12.30;36.90;99738.88;4514237;31;34414;-90
2022/12/01 00:08:36;;;;;;;;;;;;;;;12.33;36.57;99731.12;4510910;31;33951;-91
2022/12/01 00:11:07;;;;;;;;;;;;;;;11.36;37.89;99736.41;4514034;31;33697;-91
2022/12/01 00:13:35;;;;;;;;;;;;;;;11.83;37.33;99726.00;4504750;31;34140;-89
2022/12/01 00:16:12;;;;;;;;;;;;;;;11.25;37.74;99727.53;4504861;31;33182;-91
2022/12/01 00:18:39;;;;;;;;;;;;;;;10.03;40.33;99739.59;4510288;31;33777;-87
2022/12/01 00:21:13;;;;;;;;;;;;;;;9.21;42.09;99741.81;4509430;31;35081;-90
2022/12/01 00:23:46;;;;;;;;;;;;;;;10.03;40.49;99738.72;4513353;31;34312;-89
2022/12/01 00:26:13;;;;;;;;;;;;;;;10.09;40.50;99742.34;4514991;31;33944;-89
2022/12/01 00:28:41;;;;;;;;;;;;;;;10.93;39.11;99741.63;4514816;31;34911;-91
2022/12/01 00:31:08;;;;;;;;;;;;;;;11.05;38.96;99738.41;4514526;31;34397;-91
2022/12/01 00:33:35;;;;;;;;;;;;;;;10.57;39.55;99746.94;4504988;31;34605;-91
2022/12/01 00:36:03;;;;;;;;;;;;;;;10.72;39.16;99746.41;4498126;31;33998;-91
2022/12/01 00:38:30;;;;;;;;;;;;;;;9.95;40.75;99748.87;4497196;31;34683;-91
2022/12/01 00:40:59;;;;;;;;;;;;;;;8.94;42.62;99753.97;4500142;31;35187;-91
2022/12/01 00:43:27;;;;;;;;;;;;;;;9.24;41.84;99741.91;4509521;31;34409;-92
2022/12/01 00:45:55;;;;;;;;;;;;;;;8.89;42.43;99755.56;4510935;31;33444;-91
2022/12/01 00:48:22;;;;;;;;;;;;;;;9.09;41.75;99741.50;4510159;31;34974;-90
2022/12/01 00:50:50;;;;;;;;;;;;;;;8.08;43.87;99747.91;4505074;31;34107;-90
2022/12/01 00:53:17;;;;;;;;;;;;;;;7.96;44.11;99750.97;4502748;31;35030;-90
2022/12/01 00:55:44;;;;;;;;;;;;;;;8.37;43.95;99756.53;4498900;31;33702;-90
2022/12/01 00:58:11;;;;;;;;;;;;;;;8.00;44.47;99757.97;4501668;31;34004;-91
2022/12/01 01:00:39;;;;;;;;;;;;;;;7.91;44.78;99752.50;4505325;31;34075;-92
2022/12/01 01:03:06;;;;;;;;;;;;;;;7.70;45.19;99758.72;4508800;31;33826;-89
2022/12/01 01:05:37;;;;;;;;;;;;;;;8.01;44.67;99754.56;4509741;31;34470;-91
2022/12/01 01:08:08;;;;;;;;;;;;;;;7.64;45.72;99757.63;4500586;31;34259;-89
2022/12/01 01:10:38;;;;;;;;;;;;;;;8.19;44.60;99757.72;4505223;31;35279;-89
2022/12/01 01:13:06;;;;;;;;;;;;;;;8.22;44.71;99752.66;4512539;31;34225;-91
2022/12/01 01:15:33;;;;;;;;;;;;;;;7.41;46.30;99754.25;4500154;31;33491;-91
2022/12/01 01:18:00;;;;;;;;;;;;;;;8.07;45.08;99752.19;4506153;31;34300;-89
2022/12/01 01:20:27;;;;;;;;;;;;;;;8.31;44.55;99753.78;4498669;31;34436;-91
2022/12/01 01:22:55;;;;;;;;;;;;;;;8.22;44.74;99741.44;4509347;31;34438;-91
2022/12/01 01:25:22;;;;;;;;;;;;;;;8.27;44.56;99753.69;4513961;31;33823;-90
2022/12/01 01:27:49;;;;;;;;;;;;;;;8.57;43.99;99742.56;4511705;31;34298;-89
2022/12/01 01:30:16;;;;;;;;;;;;;;;8.89;43.36;99747.78;4506236;31;35291;-91
2022/12/01 01:32:44;;;;;;;;;;;;;;;8.09;44.74;99744.47;4514006;31;35014;-91
2022/12/01 01:35:11;;;;;;;;;;;;;;;8.82;43.22;99735.50;4513542;31;33499;-90
2022/12/01 01:37:38;;;;;;;;;;;;;;;8.90;42.79;99731.44;4513721;31;34398;-91
2022/12/01 01:40:06;;;;;;;;;;;;;;;8.60;44.00;99740.09;4509355;31;34074;-91
2022/12/01 01:42:33;;;;;;;;;;;;;;;8.54;43.90;99742.47;4513455;31;34050;-91
2022/12/01 01:45:00;;;;;;;;;;;;;;;8.67;43.28;99738.53;4503005;31;33369;-89
2022/12/01 01:47:31;;;;;;;;;;;;;;;8.80;43.48;99737.19;4505581;31;33791;-88
2022/12/01 01:50:04;;;;;;;;;;;;;;;9.16;42.26;99740.78;4505159;31;33840;-91
2022/12/01 01:52:36;;;;;;;;;;;;;;;10.26;40.58;99739.28;4497843;31;35653;-90
2022/12/01 01:55:03;;;;;;;;;;;;;;;10.25;40.25;99738.41;4498010;31;33762;-91
2022/12/01 01:57:31;;;;;;;;;;;;;;;10.17;40.27;99742.50;4498288;31;34240;-90
2022/12/01 02:00:09;;;;;;;;;;;;;;;10.60;39.48;99733.16;4501638;31;34590;-89
2022/12/01 02:02:39;;;;;;;;;;;;;;;9.70;40.66;99740.53;4514668;31;34074;-89
2022/12/01 02:05:10;;;;;;;;;;;;;;;10.38;39.60;99747.34;4506497;31;33402;-91
2022/12/01 02:07:38;;;;;;;;;;;;;;;10.96;38.71;99738.25;4511504;31;35031;-90
2022/12/01 02:10:06;;;;;;;;;;;;;;;11.33;38.20;99728.59;4492723;31;34412;-91
2022/12/01 02:12:42;;;;;;;;;;;;;;;10.84;39.08;99730.22;4500330;31;34232;-91
2022/12/01 02:15:27;;;;;;;;;;;;;;;11.33;38.41;99729.44;4515474;31;34281;-90
2022/12/01 02:17:54;;;;;;;;;;;;;;;11.48;38.05;99723.66;4510190;31;33790;-91
2022/12/01 02:20:34;;;;;;;;;;;;;;;11.16;38.39;99725.66;4513772;31;33993;-88
2022/12/01 02:23:10;;;;;;;;;;;;;;;11.69;37.62;99721.44;4499801;31;35050;-92
2022/12/01 02:25:37;;;;;;;;;;;;;;;10.75;38.56;99728.28;4497256;31;33626;-86
2022/12/01 02:28:11;;;;;;;;;;;;;;;10.02;39.78;99735.25;4513599;31;32574;-91
2022/12/01 02:30:44;;;;;;;;;;;;;;;10.45;39.34;99731.09;4515450;31;34287;-91
2022/12/01 02:33:17;;;;;;;;;;;;;;;10.95;38.11;99726.13;4514886;31;35302;-89
2022/12/01 02:35:46;;;;;;;;;;;;;;;10.52;38.63;99732.09;4493952;31;32819;-89
2022/12/01 02:38:16;;;;;;;;;;;;;;;9.01;41.68;99724.84;4491521;31;33923;-91
2022/12/01 02:40:45;;;;;;;;;;;;;;;8.91;42.20;99733.22;4491029;31;35188;-90
2022/12/01 02:43:16;;;;;;;;;;;;;;;9.82;40.23;99726.13;4513500;31;34504;-91
2022/12/01 02:45:51;;;;;;;;;;;;;;;9.90;40.29;99724.59;4496002;31;34505;-91
2022/12/01 02:48:25;;;;;;;;;;;;;;;10.26;39.60;99728.91;4514069;31;34039;-91
2022/12/01 02:50:52;;;;;;;;;;;;;;;8.69;41.90;99730.00;4514951;31;34411;-91
2022/12/01 02:53:20;;;;;;;;;;;;;;;8.52;42.52;99728.59;4514694;31;35157;-87
2022/12/01 02:55:51;;;;;;;;;;;;;;;8.20;43.37;99731.06;4495370;31;33616;-91
2022/12/01 02:58:18;;;;;;;;;;;;;;;7.51;44.88;99730.53;4490795;31;34181;-90
2022/12/01 03:00:58;;;;;;;;;;;;;;;7.72;44.36;99731.22;4515289;31;33443;-90
2022/12/01 03:03:44;;;;;;;;;;;;;;;6.89;45.52;99734.34;4501174;31;33992;-91
2022/12/01 03:06:23;;;;;;;;;;;;;;;7.07;45.57;99732.44;4503165;31;34315;-91
2022/12/01 03:08:57;;;;;;;;;;;;;;;7.07;45.59;99740.16;4493281;31;34111;-90
2022/12/01 03:11:29;;;;;;;;;;;;;;;6.69;46.17;99731.91;4507976;31;35200;-89
2022/12/01 03:14:07;;;;;;;;;;;;;;;6.81;46.39;99741.78;4514144;31;34580;-91
2022/12/01 03:16:46;;;;;;;;;;;;;;;7.12;45.59;99728.31;4501994;31;33804;-91
2022/12/01 03:19:17;;;;;;;;;;;;;;;7.27;45.34;99731.47;4509872;31;34652;-91
2022/12/01 03:21:53;;;;;;;;;;;;;;;7.39;45.08;99724.97;4510038;31;34407;-90
2022/12/01 03:24:21;;;;;;;;;;;;;;;7.14;45.46;99723.22;4500054;31;35342;-92
2022/12/01 03:26:51;;;;;;;;;;;;;;;6.52;47.21;99728.72;4513478;31;34393;-83
2022/12/01 03:29:19;;;;;;;;;;;;;;;6.46;47.39;99725.91;4508216;31;33735;-91
2022/12/01 03:31:47;;;;;;;;;;;;;;;6.36;47.59;99728.94;4514233;31;35351;-87
2022/12/01 03:34:23;;;;;;;;;;;;;;;6.31;47.82;99725.31;4508958;31;34797;-90
2022/12/01 03:36:51;;;;;;;;;;;;;;;5.74;49.10;99720.47;4510609;31;33402;-90
2022/12/01 03:39:20;;;;;;;;;;;;;;;6.73;47.19;99718.31;4510472;31;34850;-88
2022/12/01 03:41:49;;;;;;;;;;;;;;;6.49;47.10;99712.28;4498126;31;35010;-91
2022/12/01 03:44:19;;;;;;;;;;;;;;;6.47;47.55;99711.31;4498676;31;34587;-91
2022/12/01 03:46:47;;;;;;;;;;;;;;;6.37;47.84;99714.38;4513373;31;33730;-91
2022/12/01 03:49:15;;;;;;;;;;;;;;;7.34;45.56;99717.03;4509820;31;34063;-91
2022/12/01 03:51:48;;;;;;;;;;;;;;;7.22;46.06;99706.31;4515199;31;33902;-92
2022/12/01 03:54:25;;;;;;;;;;;;;;;7.30;45.29;99699.72;4514226;31;34460;-91
2022/12/01 03:56:54;;;;;;;;;;;;;;;6.19;48.08;99702.56;4514230;31;33897;-92
2022/12/01 03:59:22;;;;;;;;;;;;;;;6.49;47.54;99702.84;4505445;31;35419;-92
2022/12/01 04:01:49;;;;;;;;;;;;;;;6.53;47.54;99702.13;4503850;31;34380;-92
2022/12/01 04:04:17;;;;;;;;;;;;;;;6.71;47.43;99686.50;4513833;31;35109;-92
2022/12/01 04:06:45;;;;;;;;;;;;;;;5.92;48.72;99691.16;4502074;31;33782;-92
2022/12/01 04:09:12;;;;;;;;;;;;;;;5.97;49.01;99687.09;4509162;31;33654;-90
2022/12/01 04:14:25;;;;;;;;;;;;;;;5.52;50.19;99681.81;4499882;31;33890;-91
2022/12/01 04:16:52;;;;;;;;;;;;;;;5.59;49.64;99676.13;4509872;31;33312;-93
2022/12/01 04:19:20;;;;;;;;;;;;;;;5.47;50.17;99675.63;4509696;31;34101;-91
2022/12/01 04:21:47;;;;;;;;;;;;;;;5.34;50.26;99682.84;4504432;31;34062;-91
2022/12/01 04:24:14;;;;;;;;;;;;;;;5.88;49.14;99694.44;4500791;31;35226;-90
2022/12/01 04:26:42;;;;;;;;;;;;;;;6.26;48.18;99709.69;4509910;31;34439;-91
2022/12/01 04:29:09;;;;;;;;;;;;;;;7.65;45.25;99706.09;4500071;31;35107;-92
2022/12/01 04:31:37;;;;;;;;;;;;;;;7.71;44.66;99708.84;4510714;31;33936;-87
2022/12/01 04:34:04;;;;;;;;;;;;;;;7.50;44.56;99718.44;4512304;31;34069;-93
2022/12/01 04:36:33;;;;;;;;;;;;;;;8.05;43.59;99715.97;4498575;31;34457;-89
2022/12/01 04:39:01;;;;;;;;;;;;;;;7.69;43.93;99713.09;4497832;31;34134;-92
2022/12/01 04:41:28;;;;;;;;;;;;;;;8.50;42.94;99709.63;4499971;31;34059;-91
2022/12/01 04:43:55;;;;;;;;;;;;;;;8.56;42.74;99704.66;4500048;31;33860;-91
2022/12/01 04:46:22;;;;;;;;;;;;;;;7.75;44.09;99710.69;4510162;31;33774;-93
2022/12/01 04:48:50;;;;;;;;;;;;;;;7.65;44.36;99708.66;4513415;31;33885;-90
2022/12/01 04:51:17;;;;;;;;;;;;;;;7.12;45.63;99710.25;4512019;31;34866;-85
2022/12/01 04:53:44;;;;;;;;;;;;;;;7.76;44.37;99717.59;4513545;31;34447;-89
2022/12/01 04:56:11;;;;;;;;;;;;;;;8.72;42.37;99724.94;4503921;31;34327;-91
2022/12/01 04:58:38;;;;;;;;;;;;;;;9.15;41.82;99723.53;4501335;31;34262;-91
2022/12/01 05:01:07;;;;;;;;;;;;;;;9.06;41.60;99723.28;4499079;31;34342;-91
2022/12/01 05:03:35;;;;;;;;;;;;;;;8.53;42.48;99735.56;4507390;31;34330;-90
2022/12/01 05:06:03;;;;;;;;;;;;;;;8.72;42.24;99735.25;4502984;31;34072;-89
2022/12/01 05:08:31;;;;;;;;;;;;;;;9.66;40.74;99727.44;4512242;31;33949;-87
2022/12/01 05:10:58;;;;;;;;;;;;;;;9.90;39.80;99733.25;4510539;31;34344;-87
2022/12/01 05:13:25;;;;;;;;;;;;;;;8.99;41.32;99723.94;4508143;31;34269;-91
2022/12/01 05:15:53;;;;;;;;;;;;;;;9.79;40.07;99716.56;4499776;31;34419;-90
2022/12/01 05:18:20;;;;;;;;;;;;;;;9.55;40.25;99719.44;4498084;31;33934;-88
2022/12/01 05:20:56;;;;;;;;;;;;;;;9.87;39.58;99714.16;4505181;31;35361;-90
2022/12/01 05:23:27;;;;;;;;;;;;;;;9.64;39.92;99721.38;4512624;31;34579;-91
2022/12/01 05:25:54;;;;;;;;;;;;;;;8.21;42.89;99717.31;4509672;31;33525;-89
2022/12/01 05:28:22;;;;;;;;;;;;;;;8.92;41.24;99719.44;4501107;31;33977;-91
2022/12/01 05:30:49;;;;;;;;;;;;;;;9.22;40.88;99712.53;4506962;31;34034;-91
2022/12/01 05:33:17;;;;;;;;;;;;;;;9.49;40.35;99709.78;4499628;31;33773;-90
2022/12/01 05:35:44;;;;;;;;;;;;;;;9.56;40.23;99710.81;4501656;31;33302;-91
2022/12/01 05:38:11;;;;;;;;;;;;;;;9.81;39.78;99716.59;4510223;31;35022;-91
2022/12/01 05:40:38;;;;;;;;;;;;;;;10.13;39.47;99714.78;4514197;31;33803;-91
2022/12/01 05:43:06;;;;;;;;;;;;;;;9.16;40.60;99719.22;4516019;31;33912;-91
2022/12/01 05:45:33;;;;;;;;;;;;;;;10.22;38.71;99717.56;4510897;31;33769;-91
2022/12/01 05:48:00;;;;;;;;;;;;;;;10.19;39.14;99720.09;4508092;31;34953;-88
2022/12/01 05:50:28;;;;;;;;;;;;;;;10.23;39.05;99717.63;4509153;31;35057;-91
2022/12/01 05:52:56;;;;;;;;;;;;;;;10.31;38.99;99728.19;4509560;31;34410;-89
2022/12/01 05:55:23;;;;;;;;;;;;;;;9.61;40.11;99723.88;4515273;31;33450;-89
2022/12/01 05:57:50;;;;;;;;;;;;;;;9.81;39.76;99726.94;4515903;31;34862;-89
2022/12/01 06:00:17;;;;;;;;;;;;;;;10.12;39.38;99732.06;4515989;31;34542;-86
2022/12/01 06:02:45;;;;;;;;;;;;;;;10.26;39.01;99734.09;4513977;31;35167;-89
2022/12/01 06:05:12;;;;;;;;;;;;;;;10.12;38.98;99737.22;4513447;31;33589;-91
2022/12/01 06:07:39;;;;;;;;;;;;;;;9.95;39.48;99735.94;4512525;31;34289;-89
2022/12/01 06:10:08;;;;;;;;;;;;;;;9.95;39.48;99738.53;4514888;31;34355;-90
2022/12/01 06:12:35;;;;;;;;;;;;;;;9.83;39.41;99740.81;4515556;31;35065;-90
2022/12/01 06:15:05;;;;;;;;;;;;;;;10.20;38.87;99738.28;4510049;31;34308;-90
2022/12/01 06:17:33;;;;;;;;;;;;;;;10.34;38.59;99745.53;4500914;31;33837;-88
2022/12/01 06:20:06;;;;;;;;;;;;;;;10.11;38.74;99745.81;4514515;31;34438;-88
2022/12/01 06:22:34;;;;;;;;;;;;;;;10.07;39.04;99749.19;4505192;31;35171;-88
2022/12/01 06:25:01;;;;;;;;;;;;;;;10.09;39.05;99754.41;4502705;31;33083;-90
2022/12/01 06:27:28;;;;;;;;;;;;;;;10.15;38.81;99749.37;4504746;31;33744;-90
2022/12/01 06:29:55;;;;;;;;;;;;;;;10.03;39.28;99756.84;4501192;31;33949;-89
2022/12/01 06:32:22;;;;;;;;;;;;;;;10.05;39.17;99752.59;4500912;31;34771;-88
2022/12/01 06:34:50;;;;;;;;;;;;;;;10.28;38.63;99750.59;4515265;31;33674;-89
2022/12/01 06:37:17;;;;;;;;;;;;;;;10.15;39.12;99750.28;4514393;31;35033;-89
2022/12/01 06:39:44;;;;;;;;;;;;;;;10.33;38.72;99744.66;4514984;31;35219;-90
2022/12/01 06:42:11;;;;;;;;;;;;;;;10.24;38.89;99742.69;4507356;31;35275;-88
2022/12/01 06:44:39;;;;;;;;;;;;;;;10.26;38.90;99741.87;4503913;31;33198;-88
2022/12/01 06:47:07;;;;;;;;;;;;;;;10.25;39.21;99753.97;4515545;31;34168;-88
2022/12/01 06:49:34;;;;;;;;;;;;;;;10.54;38.61;99739.09;4499642;31;34351;-88
2022/12/01 06:52:02;;;;;;;;;;;;;;;10.56;38.63;99737.38;4512023;31;34588;-88
2022/12/01 06:54:29;;;;;;;;;;;;;;;10.63;38.41;99738.41;4515325;31;33364;-89
2022/12/01 06:56:57;;;;;;;;;;;;;;;10.40;38.52;99746.53;4515624;31;34186;-88
2022/12/01 06:59:25;;;;;;;;;;;;;;;10.19;38.66;99751.19;4515309;31;35131;-88
2022/12/01 07:01:52;;;;;;;;;;;;;;;10.24;38.53;99755.66;4504909;31;35272;-87
2022/12/01 07:04:19;;;;;;;;;;;;;;;10.18;38.92;99754.63;4500292;31;33298;-89
2022/12/01 07:06:47;;;;;;;;;;;;;;;10.33;38.85;99761.91;4515032;31;34672;-88
2022/12/01 07:09:14;;;;;;;;;;;;;;;10.40;38.51;99754.31;4515239;31;34728;-86
2022/12/01 07:11:41;;;;;;;;;;;;;;;10.09;39.49;99757.00;4515293;31;34929;-88
2022/12/01 07:14:20;;;;;;;;;;;;;;;10.21;39.49;99754.69;4515136;31;33582;-87
2022/12/01 07:16:47;;;;;;;;;;;;;;;10.41;39.05;99757.78;4503803;31;33796;-89
2022/12/01 07:19:14;;;;;;;;;;;;;;;10.40;39.21;99763.81;4499354;31;34993;-88
2022/12/01 07:21:42;;;;;;;;;;;;;;;10.36;39.38;99764.59;4499280;31;33715;-88
2022/12/01 07:24:11;;;;;;;;;;;;;;;10.48;39.10;99762.25;4499394;31;33161;-87
2022/12/01 07:26:39;;;;;;;;;;;;;;;10.46;39.01;99756.19;4499480;31;34217;-89
2022/12/01 07:29:08;;;;;;;;;;;;;;;10.45;39.22;99750.13;4499306;31;33946;-88
2022/12/01 07:31:35;;;;;;;;;;;;;;;10.61;38.85;99753.94;4499311;31;34327;-87
2022/12/01 07:34:03;;;;;;;;;;;;;;;10.21;39.41;99754.69;4499366;31;34413;-88
2022/12/01 07:36:30;;;;;;;;;;;;;;;10.04;40.08;99753.41;4505125;31;33746;-87
2022/12/01 07:38:57;;;;;;;;;;;;;;;10.28;39.52;99759.22;4499399;31;34267;-88
2022/12/01 07:41:25;;;;;;;;;;;;;;;10.82;38.68;99753.50;4499407;31;34790;-88
2022/12/01 07:43:53;;;;;;;;;;;;;;;10.22;40.05;99759.91;4499479;31;33071;-89
2022/12/01 07:46:21;;;;;;;;;;;;;;;10.23;39.91;99759.09;4499297;31;35163;-88
2022/12/01 07:48:51;;;;;;;;;;;;;;;10.04;40.23;99768.94;4498978;31;34441;-88
2022/12/01 07:51:18;;;;;;;;;;;;;;;10.34;40.11;99766.25;4499377;31;34484;-88
2022/12/01 07:53:46;;;;;;;;;;;;;;;10.58;39.68;99761.62;4498180;31;34220;-87
2022/12/01 07:56:13;;;;;;;;;;;;;;;10.89;39.05;99762.31;4498982;31;34976;-88
2022/12/01 07:58:40;;;;;;;;;;;;;;;10.67;39.51;99772.19;4499227;31;34136;-88
2022/12/01 08:01:08;;;;;;;;;;;;;;;10.52;39.96;99771.00;4497672;31;35064;-88
2022/12/01 08:03:36;;;;;;;;;;;;;;;10.60;39.67;99767.72;4499105;31;34258;-87
2022/12/01 08:06:04;;;;;;;;;;;;;;;10.56;39.95;99775.41;4511178;31;34822;-89
2022/12/01 08:08:31;;;;;;;;;;;;;;;10.90;39.44;99775.28;4499424;31;34262;-89
2022/12/01 08:11:00;;;;;;;;;;;;;;;11.14;38.77;99774.06;4499057;31;34445;-89
2022/12/01 08:13:27;;;;;;;;;;;;;;;11.32;38.66;99770.94;4499058;31;33618;-88
2022/12/01 08:15:54;;;;;;;;;;;;;;;11.30;38.83;99765.72;4498020;31;34311;-88
2022/12/01 08:18:22;;;;;;;;;;;;;;;11.44;38.68;99764.28;4500733;31;35082;-87
2022/12/01 08:20:49;;;;;;;;;;;;;;;11.38;38.74;99761.56;4503961;31;34334;-87
2022/12/01 08:23:16;;;;;;;;;;;;;;;11.08;38.90;99769.62;4503534;31;33512;-84
2022/12/01 08:25:44;;;;;;;;;;;;;;;10.77;39.61;99764.63;4497552;31;34155;-84
2022/12/01 08:28:11;;;;;;;;;;;;;;;10.30;40.29;99767.03;4500947;31;34555;-88
2022/12/01 08:30:38;;;;;;;;;;;;;;;10.50;40.08;99758.00;4510615;31;35080;-87
2022/12/01 08:33:06;;;;;;;;;;;;;;;10.39;40.58;99768.12;4500314;31;33095;-85
2022/12/01 08:35:34;;;;;;;;;;;;;;;10.81;39.82;99772.50;4502040;31;33735;-86
2022/12/01 08:38:01;;;;;;;;;;;;;;;10.74;39.60;99767.16;4501438;31;33627;-89
2022/12/01 08:40:29;;;;;;;;;;;;;;;11.33;38.74;99764.94;4499267;31;34629;-82
2022/12/01 08:42:56;;;;;;;;;;;;;;;11.39;38.52;99765.91;4498758;31;33869;-84
2022/12/01 08:45:23;;;;;;;;;;;;;;;11.34;38.73;99772.72;4498815;31;33835;-85
2022/12/01 08:47:51;;;;;;;;;;;;;;;11.38;38.77;99773.66;4514416;31;34860;-85
2022/12/01 08:50:19;;;;;;;;;;;;;;;10.88;39.20;99781.31;4504447;31;35228;-86
2022/12/01 08:52:46;;;;;;;;;;;;;;;11.13;38.68;99777.47;4498308;31;34381;-86
2022/12/01 08:55:13;;;;;;;;;;;;;;;11.08;38.82;99781.72;4503838;31;34173;-86
2022/12/01 08:57:40;;;;;;;;;;;;;;;11.01;39.55;99783.31;4512009;31;34196;-89
2022/12/01 09:00:08;;;;;;;;;;;;;;;11.68;38.20;99779.44;4501385;31;34247;-86
2022/12/01 09:02:35;;;;;;;;;;;;;;;11.21;38.66;99786.28;4501937;31;33771;-86
2022/12/01 09:05:03;;;;;;;;;;;;;;;11.27;38.38;99782.97;4506129;31;34966;-84
2022/12/01 09:07:31;;;;;;;;;;;;;;;11.07;39.20;99788.63;4511134;31;34176;-86
2022/12/01 09:09:59;;;;;;;;;;;;;;;11.36;38.09;99783.12;4499897;31;35051;-86
2022/12/01 09:12:27;;;;;;;;;;;;;;;10.97;39.03;99791.88;4500326;31;33614;-86
2022/12/01 09:14:54;;;;;;;;;;;;;;;11.80;36.87;99776.16;4500584;31;34180;-85
2022/12/01 09:17:22;;;;;;;;;;;;;;;11.66;37.32;99775.03;4500049;31;35488;-84
2022/12/01 09:19:49;;;;;;;;;;;;;;;11.88;37.29;99769.41;4499981;31;35662;-85
2022/12/01 09:22:17;;;;;;;;;;;;;;;10.99;38.41;99779.81;4510042;31;34406;-85
2022/12/01 09:24:44;;;;;;;;;;;;;;;11.33;37.47;99765.78;4499882;31;34293;-85
2022/12/01 09:27:12;;;;;;;;;;;;;;;11.65;36.87;99763.78;4499394;31;35185;-85
2022/12/01 09:29:39;;;;;;;;;;;;;;;11.58;38.20;99766.25;4500168;31;35130;-84
2022/12/01 09:32:06;;;;;;;;;;;;;;;11.56;38.13;99763.63;4499932;31;33610;-84
2022/12/01 09:34:34;;;;;;;;;;;;;;;11.60;37.75;99765.44;4500135;31;34023;-86
2022/12/01 09:37:01;;;;;;;;;;;;;;;11.18;38.28;99756.00;4498824;31;34353;-85
2022/12/01 09:39:28;;;;;;;;;;;;;;;10.06;39.98;99764.69;4499756;31;34340;-85
2022/12/01 09:41:57;;;;;;;;;;;;;;;10.32;39.56;99760.19;4500396;31;33579;-85
2022/12/01 09:44:29;;;;;;;;;;;;;;;10.85;38.83;99758.75;4500003;31;35027;-85
2022/12/01 09:47:05;;;;;;;;;;;;;;;10.93;38.71;99759.78;4498711;31;35160;-85
2022/12/01 09:49:46;;;;;;;;;;;;;;;10.79;39.32;99755.16;4498508;31;35029;-85
2022/12/01 09:52:15;;;;;;;;;;;;;;;11.18;38.86;99749.94;4500957;31;34507;-87
2022/12/01 09:54:43;;;;;;;;;;;;;;;11.56;38.45;99742.84;4501426;31;34551;-86
2022/12/01 09:57:13;;;;;;;;;;;;;;;11.19;37.79;99747.34;4507318;31;33882;-87
2022/12/01 09:59:42;;;;;;;;;;;;;;;11.16;38.58;99752.47;4498733;31;34444;-87
2022/12/01 10:02:19;;;;;;;;;;;;;;;11.40;37.36;99746.91;4514843;31;34219;-86
2022/12/01 10:04:47;;;;;;;;;;;;;;;11.76;37.58;99740.59;4514140;31;34855;-87
2022/12/01 10:07:47;;;;;;;;;;;;;;;10.88;38.25;99745.88;4515784;31;33978;-87
2022/12/01 10:10:17;;;;;;;;;;;;;;;11.07;38.54;99738.47;4479601;31;34898;-84
2022/12/01 10:12:45;;;;;;;;;;;;;;;11.07;38.34;99738.47;4514563;31;34378;-84
2022/12/01 10:15:14;;;;;;;;;;;;;;;11.52;37.67;99730.66;4514905;31;34040;-86
2022/12/01 10:17:47;;;;;;;;;;;;;;;11.60;38.02;99738.59;4515132;31;34048;-86
2022/12/01 10:20:14;;;;;;;;;;;;;;;10.47;39.81;99743.25;4511339;31;34781;-87
2022/12/01 10:22:51;;;;;;;;;;;;;;;10.84;38.91;99744.06;4509769;31;32920;-86
2022/12/01 10:25:23;;;;;;;;;;;;;;;10.15;40.25;99747.69;4515554;31;33982;-86
2022/12/01 10:28:05;;;;;;;;;;;;;;;10.64;40.07;99735.81;4515461;31;35038;-84
2022/12/01 10:30:38;;;;;;;;;;;;;;;9.41;42.17;99737.19;4514481;31;34304;-87
2022/12/01 10:33:24;;;;;;;;;;;;;;;10.65;39.86;99729.81;4512148;31;34229;-87
2022/12/01 10:35:52;;;;;;;;;;;;;;;10.81;39.36;99725.81;4499641;31;34675;-86
2022/12/01 10:38:33;;;;;;;;;;;;;;;10.23;40.23;99717.63;4498216;31;34290;-87
2022/12/01 10:41:00;;;;;;;;;;;;;;;10.55;39.81;99714.91;4500062;31;35114;-87
2022/12/01 10:43:29;;;;;;;;;;;;;;;10.03;40.74;99718.87;4498327;31;33411;-87
2022/12/01 10:45:56;;;;;;;;;;;;;;;10.99;39.08;99711.50;4510911;31;34782;-87
2022/12/01 10:48:23;;;;;;;;;;;;;;;11.47;39.00;99708.03;4506038;31;35138;-86
2022/12/01 10:50:51;;;;;;;;;;;;;;;10.96;38.53;99722.66;4501055;31;34446;-82
2022/12/01 10:53:21;;;;;;;;;;;;;;;11.24;38.56;99712.81;4510688;31;34391;-85
2022/12/01 10:55:49;;;;;;;;;;;;;;;11.01;38.60;99721.03;4499461;31;35085;-88
2022/12/01 10:58:17;;;;;;;;;;;;;;;11.25;38.46;99719.75;4498269;31;34813;-86
2022/12/01 11:00:53;;;;;;;;;;;;;;;10.75;39.31;99719.63;4506623;31;34431;-90
2022/12/01 11:03:32;;;;;;;;;;;;;;;11.42;38.28;99715.75;4490730;31;34319;-89
2022/12/01 11:06:00;;;;;;;;;;;;;;;11.84;37.86;99706.97;4498235;31;33637;-89
2022/12/01 11:08:42;;;;;;;;;;;;;;;12.18;37.48;99704.06;4499303;31;34140;-89
2022/12/01 11:11:23;;;;;;;;;;;;;;;12.44;37.03;99700.97;4499145;31;35321;-88
2022/12/01 11:13:51;;;;;;;;;;;;;;;12.49;36.85;99688.87;4511432;31;33753;-89
2022/12/01 11:16:35;;;;;;;;;;;;;;;12.53;36.93;99684.59;4499896;31;34218;-88
2022/12/01 11:19:26;;;;;;;;;;;;;;;12.71;35.70;99679.63;4498114;31;34130;-89
2022/12/01 11:21:55;;;;;;;;;;;;;;;12.36;36.63;99677.47;4495088;31;35084;-87
2022/12/01 11:24:40;;;;;;;;;;;;;;;12.72;36.15;99676.16;4498227;31;33154;-88
2022/12/01 11:27:23;;;;;;;;;;;;;;;13.08;36.09;99670.53;4506641;31;34917;-89
2022/12/01 11:29:51;;;;;;;;;;;;;;;13.20;35.68;99676.72;4515255;31;33848;-88
2022/12/01 11:32:19;;;;;;;;;;;;;;;12.44;36.99;99685.34;4500543;31;33948;-87
2022/12/01 11:34:56;;;;;;;;;;;;;;;12.14;36.75;99676.28;4500475;31;33115;-88
2022/12/01 11:37:26;;;;;;;;;;;;;;;12.60;36.08;99674.28;4498705;31;35089;-89
2022/12/01 11:39:53;;;;;;;;;;;;;;;12.21;36.67;99674.66;4497979;31;34182;-87
2022/12/01 11:42:25;;;;;;;;;;;;;;;12.24;37.10;99668.63;4499225;31;34430;-88
2022/12/01 11:44:52;;;;;;;;;;;;;;;11.87;37.40;99660.28;4499088;31;34391;-86
2022/12/01 11:47:20;;;;;;;;;;;;;;;11.68;37.57;99670.34;4499033;31;33987;-86
2022/12/01 11:50:00;;;;;;;;;;;;;;;12.00;37.55;99670.00;4498170;31;34005;-87
2022/12/01 11:52:29;;;;;;;;;;;;;;;12.08;37.98;99675.31;4500502;31;34278;-85
2022/12/01 11:55:17;;;;;;;;;;;;;;;12.11;37.89;99673.63;4501562;31;33281;-89
2022/12/01 11:57:45;;;;;;;;;;;;;;;11.34;38.52;99673.22;4511587;31;34680;-87
2022/12/01 12:00:16;;;;;;;;;;;;;;;11.29;38.73;99670.53;4496846;31;35145;-84
2022/12/01 12:02:49;;;;;;;;;;;;;;;11.99;37.62;99675.19;4498306;31;35113;-86
2022/12/01 12:05:22;;;;;;;;;;;;;;;11.93;37.92;99670.75;4498813;31;33292;-88
2022/12/01 12:07:56;;;;;;;;;;;;;;;12.31;37.61;99670.44;4498588;31;34092;-90
2022/12/01 12:10:39;;;;;;;;;;;;;;;12.70;36.94;99661.41;4499109;31;35280;-86
2022/12/01 12:13:07;;;;;;;;;;;;;;;11.52;38.91;99667.47;4502773;31;34147;-89
2022/12/01 12:15:36;;;;;;;;;;;;;;;11.81;38.35;99662.72;4498675;31;33808;-87
2022/12/01 12:18:08;;;;;;;;;;;;;;;12.38;37.13;99659.25;4498979;31;34143;-89
2022/12/01 12:20:56;;;;;;;;;;;;;;;12.71;37.02;99658.81;4497411;31;34409;-90
2022/12/01 12:23:42;;;;;;;;;;;;;;;13.09;36.20;99660.97;4492378;31;35086;-90
2022/12/01 12:26:48;;;;;;;;;;;;;;;13.36;35.72;99657.81;4499549;31;33742;-90
2022/12/01 12:29:15;;;;;;;;;;;;;;;13.33;35.73;99655.16;4475994;32;33999;-88
2022/12/01 12:31:48;;;;;;;;;;;;;;;12.79;35.87;99661.50;4480574;32;34539;-91
2022/12/01 12:34:34;;;;;;;;;;;;;;;13.61;35.19;99656.31;4497977;31;35082;-89
2022/12/01 12:37:07;;;;;;;;;;;;;;;12.56;36.02;99649.09;4514577;31;33540;-87
2022/12/01 12:39:37;;;;;;;;;;;;;;;13.22;35.66;99654.16;4512518;31;33997;-90
2022/12/01 12:42:12;;;;;;;;;;;;;;;13.19;35.95;99647.22;4506195;31;34380;-90
2022/12/01 12:44:49;;;;;;;;;;;;;;;13.66;35.19;99656.34;4497017;31;34947;-90
2022/12/01 12:47:20;;;;;;;;;;;;;;;13.62;34.88;99643.28;4498714;31;33651;-90
2022/12/01 12:49:55;;;;;;;;;;;;;;;13.44;35.37;99653.53;4498672;31;35105;-90
2022/12/01 12:52:24;;;;;;;;;;;;;;;13.42;35.76;99652.66;4498804;31;34292;-90
2022/12/01 12:55:11;;;;;;;;;;;;;;;13.76;35.32;99647.75;4497489;31;33871;-89
2022/12/01 12:57:59;;;;;;;;;;;;;;;14.16;34.43;99645.38;4498483;31;33383;-90
2022/12/01 13:00:27;;;;;;;;;;;;;;;14.40;33.58;99645.53;4498272;31;33948;-90
2022/12/01 13:03:03;;;;;;;;;;;;;;;13.86;34.13;99649.53;4498446;31;34507;-90
2022/12/01 13:05:48;;;;;;;;;;;;;;;14.03;34.22;99650.53;4500585;31;35164;-88
2022/12/01 13:08:15;;;;;;;;;;;;;;;14.35;33.94;99642.00;4506422;31;33616;-89